sensor_id;sensor_type;location;lat;lon;timestamp;temperature;humidity
10530;DHT22;5313;48.834;9.228;2024-03-25T00:02:07;5.70;99.90
10530;DHT22;5313;48.834;9.228;2024-03-25T00:04:33;5.80;99.90
10530;DHT22;5313;48.834;9.228;2024-03-25T00:06:59;5.80;99.90
10530;DHT22;5313;48.834;9.228;2024-03-25T00:09:24;5.80;99.90
10530;DHT22;5313;48.834;9.228;2024-03-25T00:11:50;5.80;99.90
10530;DHT22;5313;48.834;9.228;2024-03-25T00:14:23;5.80;99.90
10530;DHT22;5313;48.834;9.228;2024-03-25T00:16:49;5.80;99.90
10530;DHT22;5313;48.834;9.228;2024-03-25T00:19:14;5.80;99.90
10530;DHT22;5313;48.834;9.228;2024-03-25T00:21:40;5.80;99.90
10530;DHT22;5313;48.834;9.228;2024-03-25T00:24:07;5.80;99.90
10530;DHT22;5313;48.834;9.228;2024-03-25T00:26:33;5.80;99.90
10530;DHT22;5313;48.834;9.228;2024-03-25T00:28:59;5.80;99.90
10530;DHT22;5313;48.834;9.228;2024-03-25T00:31:24;5.80;99.90
10530;DHT22;5313;48.834;9.228;2024-03-25T00:33:49;5.80;99.90
10530;DHT22;5313;48.834;9.228;2024-03-25T00:36:15;5.80;99.90
10530;DHT22;5313;48.834;9.228;2024-03-25T00:38:41;5.80;99.90
10530;DHT22;5313;48.834;9.228;2024-03-25T00:41:06;5.80;99.90
10530;DHT22;5313;48.834;9.228;2024-03-25T00:43:32;5.80;99.90
10530;DHT22;5313;48.834;9.228;2024-03-25T00:45:57;5.70;99.90
10530;DHT22;5313;48.834;9.228;2024-03-25T00:48:23;5.70;99.90
10530;DHT22;5313;48.834;9.228;2024-03-25T00:50:49;5.70;99.90
10530;DHT22;5313;48.834;9.228;2024-03-25T00:53:14;5.70;99.90
10530;DHT22;5313;48.834;9.228;2024-03-25T00:55:40;5.60;99.90
10530;DHT22;5313;48.834;9.228;2024-03-25T00:58:06;5.60;99.90
10530;DHT22;5313;48.834;9.228;2024-03-25T01:00:31;5.60;99.90
10530;DHT22;5313;48.834;9.228;2024-03-25T01:02:57;5.60;99.90
10530;DHT22;5313;48.834;9.228;2024-03-25T01:05:22;5.60;99.90
10530;DHT22;5313;48.834;9.228;2024-03-25T01:07:48;5.60;99.90
10530;DHT22;5313;48.834;9.228;2024-03-25T01:10:14;5.60;99.90
10530;DHT22;5313;48.834;9.228;2024-03-25T01:12:40;5.60;99.90
10530;DHT22;5313;48.834;9.228;2024-03-25T01:15:06;5.60;99.90
10530;DHT22;5313;48.834;9.228;2024-03-25T01:17:32;5.60;99.90
10530;DHT22;5313;48.834;9.228;2024-03-25T01:19:58;5.60;99.90
10530;DHT22;5313;48.834;9.228;2024-03-25T01:22:23;5.60;99.90
10530;DHT22;5313;48.834;9.228;2024-03-25T01:24:49;5.70;99.90
10530;DHT22;5313;48.834;9.228;2024-03-25T01:27:14;5.70;99.90
10530;DHT22;5313;48.834;9.228;2024-03-25T01:29:40;5.90;99.90
10530;DHT22;5313;48.834;9.228;2024-03-25T01:32:06;5.20;99.90
10530;DHT22;5313;48.834;9.228;2024-03-25T01:34:32;5.60;99.90
10530;DHT22;5313;48.834;9.228;2024-03-25T01:36:57;5.60;99.90
10530;DHT22;5313;48.834;9.228;2024-03-25T01:39:23;5.60;99.90
10530;DHT22;5313;48.834;9.228;2024-03-25T01:41:49;5.00;99.90
10530;DHT22;5313;48.834;9.228;2024-03-25T01:44:15;5.70;99.90
10530;DHT22;5313;48.834;9.228;2024-03-25T01:46:41;5.70;99.90
10530;DHT22;5313;48.834;9.228;2024-03-25T01:49:08;5.70;99.90
10530;DHT22;5313;48.834;9.228;2024-03-25T01:51:34;5.50;99.90
10530;DHT22;5313;48.834;9.228;2024-03-25T01:54:01;5.60;99.90
10530;DHT22;5313;48.834;9.228;2024-03-25T01:56:27;5.60;99.90
10530;DHT22;5313;48.834;9.228;2024-03-25T01:58:55;5.60;99.90
10530;DHT22;5313;48.834;9.228;2024-03-25T02:01:21;5.60;99.90
10530;DHT22;5313;48.834;9.228;2024-03-25T02:03:46;5.70;99.90
10530;DHT22;5313;48.834;9.228;2024-03-25T02:06:13;5.60;99.90
10530;DHT22;5313;48.834;9.228;2024-03-25T02:08:41;5.50;99.90
10530;DHT22;5313;48.834;9.228;2024-03-25T02:11:07;5.60;99.90
10530;DHT22;5313;48.834;9.228;2024-03-25T02:13:33;5.60;99.90
10530;DHT22;5313;48.834;9.228;2024-03-25T02:16:00;5.60;99.90
10530;DHT22;5313;48.834;9.228;2024-03-25T02:18:25;5.60;99.90
10530;DHT22;5313;48.834;9.228;2024-03-25T02:20:51;5.50;99.90
10530;DHT22;5313;48.834;9.228;2024-03-25T02:23:17;5.50;99.90
10530;DHT22;5313;48.834;9.228;2024-03-25T02:25:49;5.50;99.90
10530;DHT22;5313;48.834;9.228;2024-03-25T02:28:15;5.60;99.90
10530;DHT22;5313;48.834;9.228;2024-03-25T02:30:40;5.50;99.90
10530;DHT22;5313;48.834;9.228;2024-03-25T02:33:06;5.50;99.90
10530;DHT22;5313;48.834;9.228;2024-03-25T02:35:31;5.50;99.90
10530;DHT22;5313;48.834;9.228;2024-03-25T02:37:57;5.50;99.90
10530;DHT22;5313;48.834;9.228;2024-03-25T02:40:23;5.50;99.90
10530;DHT22;5313;48.834;9.228;2024-03-25T02:42:49;5.50;99.90
10530;DHT22;5313;48.834;9.228;2024-03-25T02:45:15;5.50;99.90
10530;DHT22;5313;48.834;9.228;2024-03-25T02:47:40;5.50;99.90
10530;DHT22;5313;48.834;9.228;2024-03-25T02:50:06;5.50;99.90
10530;DHT22;5313;48.834;9.228;2024-03-25T02:52:32;5.50;99.90
10530;DHT22;5313;48.834;9.228;2024-03-25T02:54:57;5.50;99.90
10530;DHT22;5313;48.834;9.228;2024-03-25T02:57:23;5.50;99.90
10530;DHT22;5313;48.834;9.228;2024-03-25T02:59:49;5.50;99.90
10530;DHT22;5313;48.834;9.228;2024-03-25T03:02:14;5.60;99.90
10530;DHT22;5313;48.834;9.228;2024-03-25T03:04:40;5.50;99.90
10530;DHT22;5313;48.834;9.228;2024-03-25T03:07:05;5.50;99.90
10530;DHT22;5313;48.834;9.228;2024-03-25T03:09:31;5.60;99.90
10530;DHT22;5313;48.834;9.228;2024-03-25T03:11:56;5.60;99.90
10530;DHT22;5313;48.834;9.228;2024-03-25T03:14:22;5.60;99.90
10530;DHT22;5313;48.834;9.228;2024-03-25T03:16:47;5.60;99.90
10530;DHT22;5313;48.834;9.228;2024-03-25T03:19:14;5.60;99.90
10530;DHT22;5313;48.834;9.228;2024-03-25T03:21:40;5.70;99.90
10530;DHT22;5313;48.834;9.228;2024-03-25T03:24:05;5.60;99.90
10530;DHT22;5313;48.834;9.228;2024-03-25T03:26:31;5.70;99.90
10530;DHT22;5313;48.834;9.228;2024-03-25T03:28:57;5.70;99.90
10530;DHT22;5313;48.834;9.228;2024-03-25T03:31:22;5.80;99.90
10530;DHT22;5313;48.834;9.228;2024-03-25T03:33:48;5.80;99.90
10530;DHT22;5313;48.834;9.228;2024-03-25T03:36:17;5.70;99.90
10530;DHT22;5313;48.834;9.228;2024-03-25T03:38:43;5.80;99.90
10530;DHT22;5313;48.834;9.228;2024-03-25T03:41:09;5.80;99.90
10530;DHT22;5313;48.834;9.228;2024-03-25T03:43:35;5.80;99.90
10530;DHT22;5313;48.834;9.228;2024-03-25T03:46:01;5.70;99.90
10530;DHT22;5313;48.834;9.228;2024-03-25T03:48:27;5.60;99.90
10530;DHT22;5313;48.834;9.228;2024-03-25T03:50:52;5.70;99.90
10530;DHT22;5313;48.834;9.228;2024-03-25T03:53:18;5.70;99.90
10530;DHT22;5313;48.834;9.228;2024-03-25T03:55:53;5.60;99.90
10530;DHT22;5313;48.834;9.228;2024-03-25T03:58:19;5.60;99.90
10530;DHT22;5313;48.834;9.228;2024-03-25T04:00:44;5.60;99.90
10530;DHT22;5313;48.834;9.228;2024-03-25T04:03:10;5.60;99.90
10530;DHT22;5313;48.834;9.228;2024-03-25T04:05:35;5.60;99.90
10530;DHT22;5313;48.834;9.228;2024-03-25T04:08:01;5.70;99.90
10530;DHT22;5313;48.834;9.228;2024-03-25T04:10:27;5.60;99.90
10530;DHT22;5313;48.834;9.228;2024-03-25T04:12:52;5.60;99.90
10530;DHT22;5313;48.834;9.228;2024-03-25T04:15:18;5.50;99.90
10530;DHT22;5313;48.834;9.228;2024-03-25T04:17:44;5.50;99.90
10530;DHT22;5313;48.834;9.228;2024-03-25T04:20:14;5.40;99.90
10530;DHT22;5313;48.834;9.228;2024-03-25T04:22:44;5.40;99.90
10530;DHT22;5313;48.834;9.228;2024-03-25T04:25:10;5.40;99.90
10530;DHT22;5313;48.834;9.228;2024-03-25T04:27:43;5.40;99.90
10530;DHT22;5313;48.834;9.228;2024-03-25T04:30:10;5.40;99.90
10530;DHT22;5313;48.834;9.228;2024-03-25T04:32:37;5.40;99.90
10530;DHT22;5313;48.834;9.228;2024-03-25T04:35:03;5.40;99.90
10530;DHT22;5313;48.834;9.228;2024-03-25T04:37:29;5.40;99.90
10530;DHT22;5313;48.834;9.228;2024-03-25T04:39:55;5.40;99.90
10530;DHT22;5313;48.834;9.228;2024-03-25T04:42:21;5.40;99.90
10530;DHT22;5313;48.834;9.228;2024-03-25T04:44:47;5.40;99.90
10530;DHT22;5313;48.834;9.228;2024-03-25T04:47:13;5.20;99.90
10530;DHT22;5313;48.834;9.228;2024-03-25T04:49:40;5.40;99.90
10530;DHT22;5313;48.834;9.228;2024-03-25T04:52:06;5.30;99.90
10530;DHT22;5313;48.834;9.228;2024-03-25T04:54:32;5.30;99.90
10530;DHT22;5313;48.834;9.228;2024-03-25T04:56:57;5.30;99.90
10530;DHT22;5313;48.834;9.228;2024-03-25T04:59:23;5.30;99.90
10530;DHT22;5313;48.834;9.228;2024-03-25T05:01:48;5.30;99.90
10530;DHT22;5313;48.834;9.228;2024-03-25T05:04:14;5.30;99.90
10530;DHT22;5313;48.834;9.228;2024-03-25T05:06:39;5.30;99.90
10530;DHT22;5313;48.834;9.228;2024-03-25T05:09:05;5.30;99.90
10530;DHT22;5313;48.834;9.228;2024-03-25T05:11:33;5.30;99.90
10530;DHT22;5313;48.834;9.228;2024-03-25T05:13:59;5.20;99.90
10530;DHT22;5313;48.834;9.228;2024-03-25T05:16:25;5.20;99.90
10530;DHT22;5313;48.834;9.228;2024-03-25T05:18:50;5.10;99.90
10530;DHT22;5313;48.834;9.228;2024-03-25T05:21:16;5.10;99.90
10530;DHT22;5313;48.834;9.228;2024-03-25T05:23:41;5.10;99.90
10530;DHT22;5313;48.834;9.228;2024-03-25T05:26:08;5.10;99.90
10530;DHT22;5313;48.834;9.228;2024-03-25T05:28:33;6.60;99.90
10530;DHT22;5313;48.834;9.228;2024-03-25T05:31:06;5.00;99.90
10530;DHT22;5313;48.834;9.228;2024-03-25T05:33:32;5.10;99.90
10530;DHT22;5313;48.834;9.228;2024-03-25T05:35:58;5.00;99.90
10530;DHT22;5313;48.834;9.228;2024-03-25T05:38:24;5.00;99.90
10530;DHT22;5313;48.834;9.228;2024-03-25T05:40:49;5.00;99.90
10530;DHT22;5313;48.834;9.228;2024-03-25T05:43:15;4.90;99.90
10530;DHT22;5313;48.834;9.228;2024-03-25T05:45:40;4.90;99.90
10530;DHT22;5313;48.834;9.228;2024-03-25T05:48:06;5.00;99.90
10530;DHT22;5313;48.834;9.228;2024-03-25T05:50:32;5.00;99.90
10530;DHT22;5313;48.834;9.228;2024-03-25T05:52:57;4.90;99.90
10530;DHT22;5313;48.834;9.228;2024-03-25T05:55:23;4.80;99.90
10530;DHT22;5313;48.834;9.228;2024-03-25T05:57:48;4.90;99.90
10530;DHT22;5313;48.834;9.228;2024-03-25T06:00:14;4.80;99.90
10530;DHT22;5313;48.834;9.228;2024-03-25T06:02:39;4.90;99.90
10530;DHT22;5313;48.834;9.228;2024-03-25T06:05:05;5.00;99.90
10530;DHT22;5313;48.834;9.228;2024-03-25T06:07:31;5.00;99.90
10530;DHT22;5313;48.834;9.228;2024-03-25T06:09:56;5.00;99.90
10530;DHT22;5313;48.834;9.228;2024-03-25T06:12:21;5.00;99.90
10530;DHT22;5313;48.834;9.228;2024-03-25T06:14:47;5.10;99.90
10530;DHT22;5313;48.834;9.228;2024-03-25T06:17:12;5.20;99.90
10530;DHT22;5313;48.834;9.228;2024-03-25T06:19:38;5.30;99.90
10530;DHT22;5313;48.834;9.228;2024-03-25T06:22:03;5.40;99.90
10530;DHT22;5313;48.834;9.228;2024-03-25T06:24:29;5.50;99.90
10530;DHT22;5313;48.834;9.228;2024-03-25T06:26:54;5.50;99.90
10530;DHT22;5313;48.834;9.228;2024-03-25T06:29:20;5.50;99.90
10530;DHT22;5313;48.834;9.228;2024-03-25T06:31:47;5.40;99.90
10530;DHT22;5313;48.834;9.228;2024-03-25T06:34:31;5.40;99.90
10530;DHT22;5313;48.834;9.228;2024-03-25T06:36:56;5.50;99.90
10530;DHT22;5313;48.834;9.228;2024-03-25T06:39:22;5.60;99.90
10530;DHT22;5313;48.834;9.228;2024-03-25T06:41:47;5.70;99.90
10530;DHT22;5313;48.834;9.228;2024-03-25T06:44:13;5.90;99.90
10530;DHT22;5313;48.834;9.228;2024-03-25T06:46:38;6.10;99.90
10530;DHT22;5313;48.834;9.228;2024-03-25T06:49:04;6.20;99.90
10530;DHT22;5313;48.834;9.228;2024-03-25T06:51:30;6.40;99.90
10530;DHT22;5313;48.834;9.228;2024-03-25T06:53:55;6.60;99.90
10530;DHT22;5313;48.834;9.228;2024-03-25T06:56:21;6.70;99.90
10530;DHT22;5313;48.834;9.228;2024-03-25T06:58:46;6.70;99.90
10530;DHT22;5313;48.834;9.228;2024-03-25T07:01:12;6.80;99.90
10530;DHT22;5313;48.834;9.228;2024-03-25T07:03:38;7.00;99.90
10530;DHT22;5313;48.834;9.228;2024-03-25T07:06:04;7.00;99.90
10530;DHT22;5313;48.834;9.228;2024-03-25T07:08:30;6.90;99.90
10530;DHT22;5313;48.834;9.228;2024-03-25T07:10:56;7.10;99.90
10530;DHT22;5313;48.834;9.228;2024-03-25T07:13:22;7.10;99.90
10530;DHT22;5313;48.834;9.228;2024-03-25T07:15:48;7.30;99.90
10530;DHT22;5313;48.834;9.228;2024-03-25T07:18:13;7.40;99.90
10530;DHT22;5313;48.834;9.228;2024-03-25T07:20:40;7.40;99.90
10530;DHT22;5313;48.834;9.228;2024-03-25T07:23:05;7.50;99.90
10530;DHT22;5313;48.834;9.228;2024-03-25T07:25:31;7.60;99.90
10530;DHT22;5313;48.834;9.228;2024-03-25T07:27:57;7.60;99.90
10530;DHT22;5313;48.834;9.228;2024-03-25T07:30:22;7.70;99.90
10530;DHT22;5313;48.834;9.228;2024-03-25T07:32:52;7.80;99.90
10530;DHT22;5313;48.834;9.228;2024-03-25T07:35:18;7.80;99.90
10530;DHT22;5313;48.834;9.228;2024-03-25T07:37:44;7.60;99.90
10530;DHT22;5313;48.834;9.228;2024-03-25T07:40:09;7.60;99.90
10530;DHT22;5313;48.834;9.228;2024-03-25T07:42:37;7.60;99.90
10530;DHT22;5313;48.834;9.228;2024-03-25T07:45:03;7.50;99.90
10530;DHT22;5313;48.834;9.228;2024-03-25T07:47:30;7.60;99.90
10530;DHT22;5313;48.834;9.228;2024-03-25T07:49:55;7.60;99.90
10530;DHT22;5313;48.834;9.228;2024-03-25T07:52:21;7.40;99.90
10530;DHT22;5313;48.834;9.228;2024-03-25T07:54:47;7.30;99.90
10530;DHT22;5313;48.834;9.228;2024-03-25T07:57:12;7.40;99.90
10530;DHT22;5313;48.834;9.228;2024-03-25T07:59:38;7.50;99.90
10530;DHT22;5313;48.834;9.228;2024-03-25T08:02:04;7.80;99.90
10530;DHT22;5313;48.834;9.228;2024-03-25T08:04:29;7.90;99.90
10530;DHT22;5313;48.834;9.228;2024-03-25T08:06:55;8.20;99.90
10530;DHT22;5313;48.834;9.228;2024-03-25T08:09:20;8.40;99.90
10530;DHT22;5313;48.834;9.228;2024-03-25T08:11:46;8.60;99.90
10530;DHT22;5313;48.834;9.228;2024-03-25T08:14:11;8.50;99.90
10530;DHT22;5313;48.834;9.228;2024-03-25T08:16:37;8.30;99.90
10530;DHT22;5313;48.834;9.228;2024-03-25T08:19:03;8.30;99.90
10530;DHT22;5313;48.834;9.228;2024-03-25T08:21:29;8.50;99.90
10530;DHT22;5313;48.834;9.228;2024-03-25T08:23:55;8.60;99.90
10530;DHT22;5313;48.834;9.228;2024-03-25T08:26:20;8.70;99.90
10530;DHT22;5313;48.834;9.228;2024-03-25T08:28:46;8.60;99.90
10530;DHT22;5313;48.834;9.228;2024-03-25T08:31:14;8.70;99.90
10530;DHT22;5313;48.834;9.228;2024-03-25T08:33:39;8.60;99.90
10530;DHT22;5313;48.834;9.228;2024-03-25T08:36:05;8.80;99.90
10530;DHT22;5313;48.834;9.228;2024-03-25T08:38:30;8.90;99.90
10530;DHT22;5313;48.834;9.228;2024-03-25T08:40:56;8.80;99.90
10530;DHT22;5313;48.834;9.228;2024-03-25T08:43:21;8.80;99.90
10530;DHT22;5313;48.834;9.228;2024-03-25T08:45:47;8.80;99.90
10530;DHT22;5313;48.834;9.228;2024-03-25T08:48:12;8.70;99.90
10530;DHT22;5313;48.834;9.228;2024-03-25T08:50:38;8.70;99.90
10530;DHT22;5313;48.834;9.228;2024-03-25T08:53:04;8.70;99.90
10530;DHT22;5313;48.834;9.228;2024-03-25T08:55:30;8.50;99.90
10530;DHT22;5313;48.834;9.228;2024-03-25T08:57:56;8.80;99.90
10530;DHT22;5313;48.834;9.228;2024-03-25T09:00:26;8.90;99.90
10530;DHT22;5313;48.834;9.228;2024-03-25T09:02:53;9.30;99.90
10530;DHT22;5313;48.834;9.228;2024-03-25T09:05:19;9.70;99.90
10530;DHT22;5313;48.834;9.228;2024-03-25T09:07:45;9.70;99.90
10530;DHT22;5313;48.834;9.228;2024-03-25T09:10:11;9.50;99.90
10530;DHT22;5313;48.834;9.228;2024-03-25T09:12:55;9.60;99.90
10530;DHT22;5313;48.834;9.228;2024-03-25T09:15:21;9.50;99.90
10530;DHT22;5313;48.834;9.228;2024-03-25T09:17:46;9.90;99.90
10530;DHT22;5313;48.834;9.228;2024-03-25T09:20:12;9.80;99.90
10530;DHT22;5313;48.834;9.228;2024-03-25T09:22:45;9.70;99.90
10530;DHT22;5313;48.834;9.228;2024-03-25T09:25:12;9.50;99.90
10530;DHT22;5313;48.834;9.228;2024-03-25T09:27:38;9.50;99.90
10530;DHT22;5313;48.834;9.228;2024-03-25T09:30:05;9.50;99.90
10530;DHT22;5313;48.834;9.228;2024-03-25T09:32:31;10.00;99.90
10530;DHT22;5313;48.834;9.228;2024-03-25T09:34:59;10.30;99.90
10530;DHT22;5313;48.834;9.228;2024-03-25T09:37:25;10.40;99.90
10530;DHT22;5313;48.834;9.228;2024-03-25T09:39:50;10.60;99.90
10530;DHT22;5313;48.834;9.228;2024-03-25T09:42:26;10.60;99.90
10530;DHT22;5313;48.834;9.228;2024-03-25T09:44:55;10.80;99.90
10530;DHT22;5313;48.834;9.228;2024-03-25T09:47:22;11.00;99.40
10530;DHT22;5313;48.834;9.228;2024-03-25T09:49:48;11.30;93.90
10530;DHT22;5313;48.834;9.228;2024-03-25T09:52:15;11.40;91.10
10530;DHT22;5313;48.834;9.228;2024-03-25T09:54:41;11.10;93.70
10530;DHT22;5313;48.834;9.228;2024-03-25T09:57:08;11.30;94.80
10530;DHT22;5313;48.834;9.228;2024-03-25T09:59:33;11.50;95.80
10530;DHT22;5313;48.834;9.228;2024-03-25T10:01:59;11.60;94.60
10530;DHT22;5313;48.834;9.228;2024-03-25T10:04:26;11.30;99.90
10530;DHT22;5313;48.834;9.228;2024-03-25T10:06:51;11.30;97.10
10530;DHT22;5313;48.834;9.228;2024-03-25T10:09:21;11.80;94.70
10530;DHT22;5313;48.834;9.228;2024-03-25T10:11:50;12.20;92.00
10530;DHT22;5313;48.834;9.228;2024-03-25T10:14:18;12.30;90.60
10530;DHT22;5313;48.834;9.228;2024-03-25T10:16:48;12.10;91.60
10530;DHT22;5313;48.834;9.228;2024-03-25T10:19:17;12.20;91.80
10530;DHT22;5313;48.834;9.228;2024-03-25T10:21:42;11.80;93.00
10530;DHT22;5313;48.834;9.228;2024-03-25T10:24:08;11.40;94.50
10530;DHT22;5313;48.834;9.228;2024-03-25T10:26:33;11.80;94.40
10530;DHT22;5313;48.834;9.228;2024-03-25T10:29:06;12.00;93.50
10530;DHT22;5313;48.834;9.228;2024-03-25T10:31:32;12.10;93.50
10530;DHT22;5313;48.834;9.228;2024-03-25T10:33:58;11.70;93.00
10530;DHT22;5313;48.834;9.228;2024-03-25T10:36:24;11.80;92.00
10530;DHT22;5313;48.834;9.228;2024-03-25T10:38:57;12.20;90.00
10530;DHT22;5313;48.834;9.228;2024-03-25T10:41:23;12.10;91.10
10530;DHT22;5313;48.834;9.228;2024-03-25T10:43:52;12.30;90.80
10530;DHT22;5313;48.834;9.228;2024-03-25T10:46:20;12.10;90.20
10530;DHT22;5313;48.834;9.228;2024-03-25T10:48:52;11.80;88.90
10530;DHT22;5313;48.834;9.228;2024-03-25T10:51:21;10.90;90.40
10530;DHT22;5313;48.834;9.228;2024-03-25T10:53:51;10.50;92.30
10530;DHT22;5313;48.834;9.228;2024-03-25T10:56:20;11.10;91.20
10530;DHT22;5313;48.834;9.228;2024-03-25T10:58:50;11.10;90.40
10530;DHT22;5313;48.834;9.228;2024-03-25T11:01:19;10.50;90.80
10530;DHT22;5313;48.834;9.228;2024-03-25T11:03:48;10.90;92.00
10530;DHT22;5313;48.834;9.228;2024-03-25T11:06:15;11.30;89.60
10530;DHT22;5313;48.834;9.228;2024-03-25T11:08:42;11.70;87.60
10530;DHT22;5313;48.834;9.228;2024-03-25T11:11:12;12.00;87.70
10530;DHT22;5313;48.834;9.228;2024-03-25T11:13:38;12.10;85.60
10530;DHT22;5313;48.834;9.228;2024-03-25T11:16:04;12.20;88.10
10530;DHT22;5313;48.834;9.228;2024-03-25T11:18:29;12.50;84.20
10530;DHT22;5313;48.834;9.228;2024-03-25T11:21:04;12.60;87.60
10530;DHT22;5313;48.834;9.228;2024-03-25T11:23:43;12.60;82.00
10530;DHT22;5313;48.834;9.228;2024-03-25T11:26:26;12.90;81.40
10530;DHT22;5313;48.834;9.228;2024-03-25T11:28:56;12.10;86.00
10530;DHT22;5313;48.834;9.228;2024-03-25T11:31:21;11.50;88.70
10530;DHT22;5313;48.834;9.228;2024-03-25T11:33:49;12.20;86.10
10530;DHT22;5313;48.834;9.228;2024-03-25T11:36:15;15.70;88.00
10530;DHT22;5313;48.834;9.228;2024-03-25T11:38:41;13.00;84.10
10530;DHT22;5313;48.834;9.228;2024-03-25T11:41:10;13.30;81.10
10530;DHT22;5313;48.834;9.228;2024-03-25T11:43:36;12.90;81.50
10530;DHT22;5313;48.834;9.228;2024-03-25T11:46:02;13.20;80.90
10530;DHT22;5313;48.834;9.228;2024-03-25T11:48:29;13.70;78.70
10530;DHT22;5313;48.834;9.228;2024-03-25T11:50:55;13.30;78.50
10530;DHT22;5313;48.834;9.228;2024-03-25T11:53:20;13.00;82.80
10530;DHT22;5313;48.834;9.228;2024-03-25T11:55:46;12.90;88.20
10530;DHT22;5313;48.834;9.228;2024-03-25T11:58:13;12.20;89.80
10530;DHT22;5313;48.834;9.228;2024-03-25T12:00:46;12.00;93.20
10530;DHT22;5313;48.834;9.228;2024-03-25T12:03:15;12.70;90.40
10530;DHT22;5313;48.834;9.228;2024-03-25T12:05:40;13.00;87.80
10530;DHT22;5313;48.834;9.228;2024-03-25T12:08:08;12.90;86.00
10530;DHT22;5313;48.834;9.228;2024-03-25T12:10:36;12.90;84.80
10530;DHT22;5313;48.834;9.228;2024-03-25T12:13:21;13.50;83.90
10530;DHT22;5313;48.834;9.228;2024-03-25T12:15:47;13.40;82.50
10530;DHT22;5313;48.834;9.228;2024-03-25T12:18:14;13.40;82.80
10530;DHT22;5313;48.834;9.228;2024-03-25T12:20:39;13.50;82.90
10530;DHT22;5313;48.834;9.228;2024-03-25T12:23:05;13.80;77.20
10530;DHT22;5313;48.834;9.228;2024-03-25T12:25:31;14.10;76.80
10530;DHT22;5313;48.834;9.228;2024-03-25T12:27:56;14.00;70.60
10530;DHT22;5313;48.834;9.228;2024-03-25T12:30:22;13.90;70.30
10530;DHT22;5313;48.834;9.228;2024-03-25T12:32:50;13.70;70.50
10530;DHT22;5313;48.834;9.228;2024-03-25T12:35:16;14.20;70.90
10530;DHT22;5313;48.834;9.228;2024-03-25T12:37:44;14.30;70.80
10530;DHT22;5313;48.834;9.228;2024-03-25T12:40:11;14.70;71.00
10530;DHT22;5313;48.834;9.228;2024-03-25T12:42:37;14.70;67.20
10530;DHT22;5313;48.834;9.228;2024-03-25T12:45:05;13.90;68.00
10530;DHT22;5313;48.834;9.228;2024-03-25T12:47:31;14.50;68.40
10530;DHT22;5313;48.834;9.228;2024-03-25T12:49:57;15.20;66.40
10530;DHT22;5313;48.834;9.228;2024-03-25T12:52:23;15.40;65.30
10530;DHT22;5313;48.834;9.228;2024-03-25T12:54:48;15.10;65.50
10530;DHT22;5313;48.834;9.228;2024-03-25T12:57:14;15.00;65.90
10530;DHT22;5313;48.834;9.228;2024-03-25T12:59:40;15.00;65.50
10530;DHT22;5313;48.834;9.228;2024-03-25T13:02:08;14.60;67.20
10530;DHT22;5313;48.834;9.228;2024-03-25T13:04:36;14.50;66.50
10530;DHT22;5313;48.834;9.228;2024-03-25T13:07:03;14.30;67.30
10530;DHT22;5313;48.834;9.228;2024-03-25T13:09:28;14.30;69.50
10530;DHT22;5313;48.834;9.228;2024-03-25T13:11:55;14.50;68.30
10530;DHT22;5313;48.834;9.228;2024-03-25T13:14:21;15.60;67.40
10530;DHT22;5313;48.834;9.228;2024-03-25T13:16:47;14.80;66.20
10530;DHT22;5313;48.834;9.228;2024-03-25T13:19:13;14.70;65.00
10530;DHT22;5313;48.834;9.228;2024-03-25T13:21:39;14.50;64.80
10530;DHT22;5313;48.834;9.228;2024-03-25T13:24:04;14.20;65.00
10530;DHT22;5313;48.834;9.228;2024-03-25T13:26:30;14.00;65.00
10530;DHT22;5313;48.834;9.228;2024-03-25T13:28:56;15.10;64.30
10530;DHT22;5313;48.834;9.228;2024-03-25T13:31:21;16.00;60.40
10530;DHT22;5313;48.834;9.228;2024-03-25T13:33:47;16.10;61.10
10530;DHT22;5313;48.834;9.228;2024-03-25T13:36:12;15.70;60.50
10530;DHT22;5313;48.834;9.228;2024-03-25T13:38:38;15.70;60.00
10530;DHT22;5313;48.834;9.228;2024-03-25T13:41:03;15.20;59.20
10530;DHT22;5313;48.834;9.228;2024-03-25T13:43:30;14.80;60.80
10530;DHT22;5313;48.834;9.228;2024-03-25T13:45:55;14.80;61.10
10530;DHT22;5313;48.834;9.228;2024-03-25T13:48:21;14.90;63.10
10530;DHT22;5313;48.834;9.228;2024-03-25T13:50:48;14.10;61.30
10530;DHT22;5313;48.834;9.228;2024-03-25T13:53:14;14.60;63.50
10530;DHT22;5313;48.834;9.228;2024-03-25T13:55:39;14.40;61.60
10530;DHT22;5313;48.834;9.228;2024-03-25T13:58:05;14.80;62.90
10530;DHT22;5313;48.834;9.228;2024-03-25T14:00:32;15.40;62.30
10530;DHT22;5313;48.834;9.228;2024-03-25T14:02:59;15.70;61.00
10530;DHT22;5313;48.834;9.228;2024-03-25T14:05:25;15.70;60.30
10530;DHT22;5313;48.834;9.228;2024-03-25T14:07:51;15.30;60.10
10530;DHT22;5313;48.834;9.228;2024-03-25T14:10:17;16.00;58.20
10530;DHT22;5313;48.834;9.228;2024-03-25T14:12:42;16.40;57.00
10530;DHT22;5313;48.834;9.228;2024-03-25T14:15:08;15.90;58.50
10530;DHT22;5313;48.834;9.228;2024-03-25T14:17:34;15.10;59.30
10530;DHT22;5313;48.834;9.228;2024-03-25T14:20:00;14.90;62.20
10530;DHT22;5313;48.834;9.228;2024-03-25T14:22:26;15.10;62.50
10530;DHT22;5313;48.834;9.228;2024-03-25T14:24:52;15.00;60.90
10530;DHT22;5313;48.834;9.228;2024-03-25T14:27:25;15.00;61.10
10530;DHT22;5313;48.834;9.228;2024-03-25T14:29:51;15.30;61.60
10530;DHT22;5313;48.834;9.228;2024-03-25T14:32:21;15.00;60.10
10530;DHT22;5313;48.834;9.228;2024-03-25T14:34:47;15.20;60.00
10530;DHT22;5313;48.834;9.228;2024-03-25T14:37:13;15.30;60.80
10530;DHT22;5313;48.834;9.228;2024-03-25T14:39:38;15.30;61.20
10530;DHT22;5313;48.834;9.228;2024-03-25T14:42:04;14.90;61.40
10530;DHT22;5313;48.834;9.228;2024-03-25T14:44:30;14.70;61.60
10530;DHT22;5313;48.834;9.228;2024-03-25T14:46:56;14.50;62.10
10530;DHT22;5313;48.834;9.228;2024-03-25T14:49:24;14.50;63.90
10530;DHT22;5313;48.834;9.228;2024-03-25T14:51:49;14.00;61.90
10530;DHT22;5313;48.834;9.228;2024-03-25T14:54:15;14.00;63.00
10530;DHT22;5313;48.834;9.228;2024-03-25T14:56:40;13.90;63.60
10530;DHT22;5313;48.834;9.228;2024-03-25T14:59:06;13.80;64.20
10530;DHT22;5313;48.834;9.228;2024-03-25T15:01:31;13.90;63.90
10530;DHT22;5313;48.834;9.228;2024-03-25T15:04:01;13.70;64.00
10530;DHT22;5313;48.834;9.228;2024-03-25T15:06:26;13.70;64.50
10530;DHT22;5313;48.834;9.228;2024-03-25T15:08:52;13.80;63.20
10530;DHT22;5313;48.834;9.228;2024-03-25T15:11:17;13.70;60.70
10530;DHT22;5313;48.834;9.228;2024-03-25T15:13:43;13.70;62.30
10530;DHT22;5313;48.834;9.228;2024-03-25T15:16:08;13.80;63.90
10530;DHT22;5313;48.834;9.228;2024-03-25T15:18:34;13.60;63.80
10530;DHT22;5313;48.834;9.228;2024-03-25T15:21:00;13.50;66.20
10530;DHT22;5313;48.834;9.228;2024-03-25T15:23:26;13.50;65.70
10530;DHT22;5313;48.834;9.228;2024-03-25T15:25:51;13.20;67.10
10530;DHT22;5313;48.834;9.228;2024-03-25T15:28:17;13.10;68.40
10530;DHT22;5313;48.834;9.228;2024-03-25T15:30:42;13.10;68.40
10530;DHT22;5313;48.834;9.228;2024-03-25T15:33:08;13.00;68.60
10530;DHT22;5313;48.834;9.228;2024-03-25T15:35:33;13.10;70.00
10530;DHT22;5313;48.834;9.228;2024-03-25T15:37:59;13.10;67.80
10530;DHT22;5313;48.834;9.228;2024-03-25T15:40:25;13.20;68.90
10530;DHT22;5313;48.834;9.228;2024-03-25T15:42:50;13.10;68.50
10530;DHT22;5313;48.834;9.228;2024-03-25T15:45:16;13.00;68.50
10530;DHT22;5313;48.834;9.228;2024-03-25T15:47:41;13.10;69.40
10530;DHT22;5313;48.834;9.228;2024-03-25T15:50:07;13.20;69.60